Pagrindinis puslapis
METAR-TAF:

METAR-TAF

Oro uostai :

Kuširas, Japonija

platuma: 43-02N, ilguma: 144-12E, Aukštis: 95 m

Dabartinis oras

Ataskaita buvo paskelbta 3 valandos ir 28 minutes, ne 11:00 UTC
Vėjas 6 kt iš Šiaurės/Šiaurės Vakarų
Temperatūra -6°C
Drėgmė 68%
Slėgis 1026 hPa
Matomumas 10 km arba daugiau
Mažai debesys ne aukštis 3000 ft

METAR: RJCK 091100Z 33006KT 9999 FEW030 M06/M11 Q1026

Laikas: 23:28 (14:28 UTC)

Prognozė

Ataskaita buvo paskelbta 3 valandos ir 17 minutes, ne 11:11 UTC
Prognozė galioja nuo 09 metu 12 UTC su 10 metu 18 UTC
Vėjas 5 kt iš Šiaurės
Matomumas 10 km arba daugiau
Mažai debesys ne aukštis 3000 ft
Laikinai
nuo 10 metu 00 UTC su 10 metu 06 UTC
Matomumas: 2000 m
Mažai debesys ne aukštis 200 ft
Su prošvaistėmis ne aukštis 500 ft
lietus, sniegas, rūkana
Tapsmas
nuo 10 metu 15 UTC su 10 metu 18 UTC
Vėjas 5 kt iš Pietvakarių

TAF: RJCK 091111Z 0912/1018 36005KT 9999 FEW030 TEMPO 1000/1006 2000 -SHRASN BR FEW002 BKN005 BECMG 1015/1018 22005KT

Orai ataskaitas ir orų prognozės (METAR, TAF).

turimą stotys yra geltonos ir raudonos taškus žemėlapyje.

Perkelti pele per norėdami pamatyti stoties vardą.

Tada spustelėkite, norėdami matyti oro stebėjimo ir prognozės.

Norėdami pakeisti žemėlapį: spustelėkite ant žalios mygtukų su juodo kryžiaus žemyn,; žalią mygtuką su brūkšneliu, jei norite nutolinti; arba žalių rodyklių gretimoms žemėlapius.


METAR-TAF: